sensor_id;sensor_type;location;lat;lon;timestamp;temperature;humidity
8342;DHT22;4208;49.406;10.788;2022-08-30T00:02:32;16.70;99.90
8342;DHT22;4208;49.406;10.788;2022-08-30T00:05:01;16.70;99.90
8342;DHT22;4208;49.406;10.788;2022-08-30T00:07:30;16.70;99.90
8342;DHT22;4208;49.406;10.788;2022-08-30T00:10:00;16.70;99.90
8342;DHT22;4208;49.406;10.788;2022-08-30T00:12:29;16.60;99.90
8342;DHT22;4208;49.406;10.788;2022-08-30T00:14:59;16.60;99.90
8342;DHT22;4208;49.406;10.788;2022-08-30T00:17:28;16.60;99.90
8342;DHT22;4208;49.406;10.788;2022-08-30T00:19:56;16.60;99.90
8342;DHT22;4208;49.406;10.788;2022-08-30T00:22:25;16.60;99.90
8342;DHT22;4208;49.406;10.788;2022-08-30T00:24:54;16.60;99.90
8342;DHT22;4208;49.406;10.788;2022-08-30T00:27:24;16.70;99.90
8342;DHT22;4208;49.406;10.788;2022-08-30T00:29:53;16.70;99.90
8342;DHT22;4208;49.406;10.788;2022-08-30T00:32:22;16.70;99.90
8342;DHT22;4208;49.406;10.788;2022-08-30T00:34:52;16.70;99.90
8342;DHT22;4208;49.406;10.788;2022-08-30T00:37:21;16.70;99.90
8342;DHT22;4208;49.406;10.788;2022-08-30T00:39:50;16.60;99.90
8342;DHT22;4208;49.406;10.788;2022-08-30T00:42:20;16.60;99.90
8342;DHT22;4208;49.406;10.788;2022-08-30T00:44:51;16.60;99.90
8342;DHT22;4208;49.406;10.788;2022-08-30T00:47:20;16.70;99.90
8342;DHT22;4208;49.406;10.788;2022-08-30T00:49:50;16.60;99.90
8342;DHT22;4208;49.406;10.788;2022-08-30T00:52:20;16.50;99.90
8342;DHT22;4208;49.406;10.788;2022-08-30T00:54:50;16.50;99.90
8342;DHT22;4208;49.406;10.788;2022-08-30T00:57:19;16.50;99.90
8342;DHT22;4208;49.406;10.788;2022-08-30T00:59:50;16.50;99.90
8342;DHT22;4208;49.406;10.788;2022-08-30T01:02:20;16.50;99.90
8342;DHT22;4208;49.406;10.788;2022-08-30T01:04:52;16.40;99.90
8342;DHT22;4208;49.406;10.788;2022-08-30T01:07:21;16.40;99.90
8342;DHT22;4208;49.406;10.788;2022-08-30T01:09:50;16.40;99.90
8342;DHT22;4208;49.406;10.788;2022-08-30T01:12:19;16.40;99.90
8342;DHT22;4208;49.406;10.788;2022-08-30T01:14:51;16.40;99.90
8342;DHT22;4208;49.406;10.788;2022-08-30T01:17:20;16.40;99.90
8342;DHT22;4208;49.406;10.788;2022-08-30T01:19:53;16.40;99.90
8342;DHT22;4208;49.406;10.788;2022-08-30T01:22:27;16.30;99.90
8342;DHT22;4208;49.406;10.788;2022-08-30T01:25:00;16.30;99.90
8342;DHT22;4208;49.406;10.788;2022-08-30T01:27:30;16.30;99.90
8342;DHT22;4208;49.406;10.788;2022-08-30T01:30:00;16.20;99.90
8342;DHT22;4208;49.406;10.788;2022-08-30T01:32:30;16.20;99.90
8342;DHT22;4208;49.406;10.788;2022-08-30T01:34:58;16.20;99.90
8342;DHT22;4208;49.406;10.788;2022-08-30T01:37:30;16.20;99.90
8342;DHT22;4208;49.406;10.788;2022-08-30T01:40:02;16.20;99.90
8342;DHT22;4208;49.406;10.788;2022-08-30T01:42:31;16.10;99.90
8342;DHT22;4208;49.406;10.788;2022-08-30T01:45:00;16.10;99.90
8342;DHT22;4208;49.406;10.788;2022-08-30T01:47:28;16.10;99.90
8342;DHT22;4208;49.406;10.788;2022-08-30T01:49:57;16.00;99.90
8342;DHT22;4208;49.406;10.788;2022-08-30T01:52:26;16.10;99.90
8342;DHT22;4208;49.406;10.788;2022-08-30T01:54:55;16.00;99.90
8342;DHT22;4208;49.406;10.788;2022-08-30T01:57:25;16.00;99.90
8342;DHT22;4208;49.406;10.788;2022-08-30T01:59:54;16.00;99.90
8342;DHT22;4208;49.406;10.788;2022-08-30T02:02:25;15.90;99.90
8342;DHT22;4208;49.406;10.788;2022-08-30T02:04:55;16.00;99.90
8342;DHT22;4208;49.406;10.788;2022-08-30T02:07:25;15.90;99.90
8342;DHT22;4208;49.406;10.788;2022-08-30T02:09:54;15.80;99.90
8342;DHT22;4208;49.406;10.788;2022-08-30T02:12:24;15.80;99.90
8342;DHT22;4208;49.406;10.788;2022-08-30T02:14:53;15.80;99.90
8342;DHT22;4208;49.406;10.788;2022-08-30T02:17:23;15.80;99.90
8342;DHT22;4208;49.406;10.788;2022-08-30T02:19:52;15.80;99.90
8342;DHT22;4208;49.406;10.788;2022-08-30T02:22:21;15.70;99.90
8342;DHT22;4208;49.406;10.788;2022-08-30T02:24:49;15.70;99.90
8342;DHT22;4208;49.406;10.788;2022-08-30T02:27:18;15.70;99.90
8342;DHT22;4208;49.406;10.788;2022-08-30T02:29:48;15.70;99.90
8342;DHT22;4208;49.406;10.788;2022-08-30T02:32:17;15.70;99.90
8342;DHT22;4208;49.406;10.788;2022-08-30T02:34:46;15.70;99.90
8342;DHT22;4208;49.406;10.788;2022-08-30T02:37:16;15.60;99.90
8342;DHT22;4208;49.406;10.788;2022-08-30T02:39:46;15.60;99.90
8342;DHT22;4208;49.406;10.788;2022-08-30T02:42:15;15.70;99.90
8342;DHT22;4208;49.406;10.788;2022-08-30T02:44:44;15.60;99.90
8342;DHT22;4208;49.406;10.788;2022-08-30T02:47:14;15.60;99.90
8342;DHT22;4208;49.406;10.788;2022-08-30T02:49:43;15.60;99.90
8342;DHT22;4208;49.406;10.788;2022-08-30T02:52:11;15.60;99.90
8342;DHT22;4208;49.406;10.788;2022-08-30T02:54:40;15.60;99.90
8342;DHT22;4208;49.406;10.788;2022-08-30T02:57:09;15.60;99.90
8342;DHT22;4208;49.406;10.788;2022-08-30T02:59:46;15.60;99.90
8342;DHT22;4208;49.406;10.788;2022-08-30T03:02:17;15.70;99.90
8342;DHT22;4208;49.406;10.788;2022-08-30T03:04:45;15.60;99.90
8342;DHT22;4208;49.406;10.788;2022-08-30T03:07:15;15.70;99.90
8342;DHT22;4208;49.406;10.788;2022-08-30T03:09:44;15.70;99.90
8342;DHT22;4208;49.406;10.788;2022-08-30T03:12:13;15.70;99.90
8342;DHT22;4208;49.406;10.788;2022-08-30T03:14:42;15.60;99.90
8342;DHT22;4208;49.406;10.788;2022-08-30T03:17:11;15.50;99.90
8342;DHT22;4208;49.406;10.788;2022-08-30T03:19:44;15.50;99.90
8342;DHT22;4208;49.406;10.788;2022-08-30T03:22:13;15.60;99.90
8342;DHT22;4208;49.406;10.788;2022-08-30T03:24:42;15.50;99.90
8342;DHT22;4208;49.406;10.788;2022-08-30T03:27:12;15.50;99.90
8342;DHT22;4208;49.406;10.788;2022-08-30T03:29:41;15.50;99.90
8342;DHT22;4208;49.406;10.788;2022-08-30T03:32:09;15.50;99.90
8342;DHT22;4208;49.406;10.788;2022-08-30T03:34:38;15.50;99.90
8342;DHT22;4208;49.406;10.788;2022-08-30T03:37:08;15.40;99.90
8342;DHT22;4208;49.406;10.788;2022-08-30T03:39:37;15.40;99.90
8342;DHT22;4208;49.406;10.788;2022-08-30T03:42:06;15.40;99.90
8342;DHT22;4208;49.406;10.788;2022-08-30T03:44:35;15.40;99.90
8342;DHT22;4208;49.406;10.788;2022-08-30T03:47:05;15.40;99.90
8342;DHT22;4208;49.406;10.788;2022-08-30T03:49:35;15.40;99.90
8342;DHT22;4208;49.406;10.788;2022-08-30T03:52:03;15.30;99.90
8342;DHT22;4208;49.406;10.788;2022-08-30T03:54:34;15.30;99.90
8342;DHT22;4208;49.406;10.788;2022-08-30T03:57:04;15.20;99.90
8342;DHT22;4208;49.406;10.788;2022-08-30T03:59:33;15.20;99.90
8342;DHT22;4208;49.406;10.788;2022-08-30T04:02:02;15.20;99.90
8342;DHT22;4208;49.406;10.788;2022-08-30T04:04:31;15.20;99.90
8342;DHT22;4208;49.406;10.788;2022-08-30T04:07:00;15.10;99.90
8342;DHT22;4208;49.406;10.788;2022-08-30T04:09:29;15.00;99.90
8342;DHT22;4208;49.406;10.788;2022-08-30T04:11:59;15.10;99.90
8342;DHT22;4208;49.406;10.788;2022-08-30T04:14:27;15.00;99.90
8342;DHT22;4208;49.406;10.788;2022-08-30T04:16:56;15.00;99.90
8342;DHT22;4208;49.406;10.788;2022-08-30T04:19:25;15.00;99.90
8342;DHT22;4208;49.406;10.788;2022-08-30T04:21:54;14.90;99.90
8342;DHT22;4208;49.406;10.788;2022-08-30T04:24:23;15.00;99.90
8342;DHT22;4208;49.406;10.788;2022-08-30T04:26:52;14.90;99.90
8342;DHT22;4208;49.406;10.788;2022-08-30T04:29:22;14.90;99.90
8342;DHT22;4208;49.406;10.788;2022-08-30T04:31:51;14.80;99.90
8342;DHT22;4208;49.406;10.788;2022-08-30T04:34:20;14.80;99.90
8342;DHT22;4208;49.406;10.788;2022-08-30T04:36:49;14.80;99.90
8342;DHT22;4208;49.406;10.788;2022-08-30T04:39:18;14.80;99.90
8342;DHT22;4208;49.406;10.788;2022-08-30T04:41:47;14.80;99.90
8342;DHT22;4208;49.406;10.788;2022-08-30T04:44:15;14.80;99.90
8342;DHT22;4208;49.406;10.788;2022-08-30T04:46:47;14.80;99.90
8342;DHT22;4208;49.406;10.788;2022-08-30T04:49:16;14.80;99.90
8342;DHT22;4208;49.406;10.788;2022-08-30T04:51:45;14.80;99.90
8342;DHT22;4208;49.406;10.788;2022-08-30T04:54:14;14.80;99.90
8342;DHT22;4208;49.406;10.788;2022-08-30T04:56:42;14.70;99.90
8342;DHT22;4208;49.406;10.788;2022-08-30T04:59:11;14.70;99.90
8342;DHT22;4208;49.406;10.788;2022-08-30T05:01:40;14.80;99.90
8342;DHT22;4208;49.406;10.788;2022-08-30T05:04:14;14.80;99.90
8342;DHT22;4208;49.406;10.788;2022-08-30T05:06:43;14.80;99.90
8342;DHT22;4208;49.406;10.788;2022-08-30T05:09:13;14.80;99.90
8342;DHT22;4208;49.406;10.788;2022-08-30T05:11:42;14.80;99.90
8342;DHT22;4208;49.406;10.788;2022-08-30T05:14:10;14.90;99.90
8342;DHT22;4208;49.406;10.788;2022-08-30T05:16:39;14.90;99.90
8342;DHT22;4208;49.406;10.788;2022-08-30T05:19:08;14.90;99.90
8342;DHT22;4208;49.406;10.788;2022-08-30T05:21:38;14.90;99.90
8342;DHT22;4208;49.406;10.788;2022-08-30T05:24:08;15.00;99.90
8342;DHT22;4208;49.406;10.788;2022-08-30T05:26:37;14.90;99.90
8342;DHT22;4208;49.406;10.788;2022-08-30T05:29:07;14.90;99.90
8342;DHT22;4208;49.406;10.788;2022-08-30T05:31:36;15.00;99.90
8342;DHT22;4208;49.406;10.788;2022-08-30T05:34:05;14.90;99.90
8342;DHT22;4208;49.406;10.788;2022-08-30T05:36:35;14.90;99.90
8342;DHT22;4208;49.406;10.788;2022-08-30T05:39:06;14.90;99.90
8342;DHT22;4208;49.406;10.788;2022-08-30T05:41:36;14.90;99.90
8342;DHT22;4208;49.406;10.788;2022-08-30T05:44:07;14.90;99.90
8342;DHT22;4208;49.406;10.788;2022-08-30T05:46:36;14.90;99.90
8342;DHT22;4208;49.406;10.788;2022-08-30T05:49:06;15.00;99.90
8342;DHT22;4208;49.406;10.788;2022-08-30T05:51:36;15.00;99.90
8342;DHT22;4208;49.406;10.788;2022-08-30T05:54:12;15.00;99.90
8342;DHT22;4208;49.406;10.788;2022-08-30T05:56:43;15.10;99.90
8342;DHT22;4208;49.406;10.788;2022-08-30T05:59:13;15.10;99.90
8342;DHT22;4208;49.406;10.788;2022-08-30T06:01:45;15.10;99.90
8342;DHT22;4208;49.406;10.788;2022-08-30T06:04:14;15.10;99.90
8342;DHT22;4208;49.406;10.788;2022-08-30T06:06:43;15.20;99.90
8342;DHT22;4208;49.406;10.788;2022-08-30T06:09:14;15.20;99.90
8342;DHT22;4208;49.406;10.788;2022-08-30T06:11:43;15.30;99.90
8342;DHT22;4208;49.406;10.788;2022-08-30T06:14:13;15.40;99.90
8342;DHT22;4208;49.406;10.788;2022-08-30T06:16:42;15.40;99.90
8342;DHT22;4208;49.406;10.788;2022-08-30T06:19:14;15.40;99.90
8342;DHT22;4208;49.406;10.788;2022-08-30T06:21:46;15.50;99.90
8342;DHT22;4208;49.406;10.788;2022-08-30T06:24:17;15.50;99.90
8342;DHT22;4208;49.406;10.788;2022-08-30T06:26:51;15.60;99.90
8342;DHT22;4208;49.406;10.788;2022-08-30T06:29:20;15.60;99.90
8342;DHT22;4208;49.406;10.788;2022-08-30T06:31:49;15.80;99.90
8342;DHT22;4208;49.406;10.788;2022-08-30T06:34:18;15.80;99.90
8342;DHT22;4208;49.406;10.788;2022-08-30T06:36:48;15.90;99.90
8342;DHT22;4208;49.406;10.788;2022-08-30T06:39:18;16.00;99.90
8342;DHT22;4208;49.406;10.788;2022-08-30T06:41:47;16.20;99.90
8342;DHT22;4208;49.406;10.788;2022-08-30T06:44:32;16.30;99.90
8342;DHT22;4208;49.406;10.788;2022-08-30T06:47:01;16.50;99.90
8342;DHT22;4208;49.406;10.788;2022-08-30T06:49:30;16.70;99.90
8342;DHT22;4208;49.406;10.788;2022-08-30T06:51:58;16.80;99.90
8342;DHT22;4208;49.406;10.788;2022-08-30T06:54:31;16.80;99.90
8342;DHT22;4208;49.406;10.788;2022-08-30T06:57:00;17.00;99.90
8342;DHT22;4208;49.406;10.788;2022-08-30T06:59:29;17.20;99.90
8342;DHT22;4208;49.406;10.788;2022-08-30T07:01:58;17.20;99.90
8342;DHT22;4208;49.406;10.788;2022-08-30T07:04:27;17.30;99.90
8342;DHT22;4208;49.406;10.788;2022-08-30T07:06:56;17.40;99.90
8342;DHT22;4208;49.406;10.788;2022-08-30T07:09:25;17.40;99.90
8342;DHT22;4208;49.406;10.788;2022-08-30T07:11:55;17.50;99.90
8342;DHT22;4208;49.406;10.788;2022-08-30T07:14:24;17.60;99.90
8342;DHT22;4208;49.406;10.788;2022-08-30T07:16:53;17.70;99.90
8342;DHT22;4208;49.406;10.788;2022-08-30T07:19:21;17.80;99.90
8342;DHT22;4208;49.406;10.788;2022-08-30T07:21:49;17.90;99.90
8342;DHT22;4208;49.406;10.788;2022-08-30T07:24:19;18.00;99.90
8342;DHT22;4208;49.406;10.788;2022-08-30T07:26:49;18.20;99.90
8342;DHT22;4208;49.406;10.788;2022-08-30T07:29:20;18.30;99.90
8342;DHT22;4208;49.406;10.788;2022-08-30T07:31:49;18.50;99.90
8342;DHT22;4208;49.406;10.788;2022-08-30T07:34:17;18.60;99.90
8342;DHT22;4208;49.406;10.788;2022-08-30T07:36:50;18.90;99.90
8342;DHT22;4208;49.406;10.788;2022-08-30T07:39:19;19.10;99.90
8342;DHT22;4208;49.406;10.788;2022-08-30T07:41:48;19.20;99.90
8342;DHT22;4208;49.406;10.788;2022-08-30T07:44:17;19.30;99.90
8342;DHT22;4208;49.406;10.788;2022-08-30T07:46:51;19.40;99.90
8342;DHT22;4208;49.406;10.788;2022-08-30T07:49:19;19.50;99.90
8342;DHT22;4208;49.406;10.788;2022-08-30T07:51:48;19.60;99.90
8342;DHT22;4208;49.406;10.788;2022-08-30T07:54:18;19.90;99.90
8342;DHT22;4208;49.406;10.788;2022-08-30T07:56:47;20.00;99.90
8342;DHT22;4208;49.406;10.788;2022-08-30T07:59:16;20.10;99.90
8342;DHT22;4208;49.406;10.788;2022-08-30T08:01:44;20.20;99.90
8342;DHT22;4208;49.406;10.788;2022-08-30T08:04:15;20.20;99.90
8342;DHT22;4208;49.406;10.788;2022-08-30T08:06:43;20.30;99.90
8342;DHT22;4208;49.406;10.788;2022-08-30T08:09:12;20.40;99.90
8342;DHT22;4208;49.406;10.788;2022-08-30T08:11:41;20.50;99.90
8342;DHT22;4208;49.406;10.788;2022-08-30T08:14:10;20.50;99.90
8342;DHT22;4208;49.406;10.788;2022-08-30T08:16:39;20.70;99.90
8342;DHT22;4208;49.406;10.788;2022-08-30T08:19:08;20.80;99.90
8342;DHT22;4208;49.406;10.788;2022-08-30T08:21:40;20.80;99.90
8342;DHT22;4208;49.406;10.788;2022-08-30T08:24:09;21.00;99.90
8342;DHT22;4208;49.406;10.788;2022-08-30T08:26:38;21.20;99.90
8342;DHT22;4208;49.406;10.788;2022-08-30T08:29:11;21.40;99.90
8342;DHT22;4208;49.406;10.788;2022-08-30T08:31:41;21.50;99.90
8342;DHT22;4208;49.406;10.788;2022-08-30T08:34:09;21.60;99.90
8342;DHT22;4208;49.406;10.788;2022-08-30T08:36:40;21.70;99.90
8342;DHT22;4208;49.406;10.788;2022-08-30T08:39:09;21.80;99.90
8342;DHT22;4208;49.406;10.788;2022-08-30T08:41:45;21.90;99.90
8342;DHT22;4208;49.406;10.788;2022-08-30T08:44:27;22.00;99.90
8342;DHT22;4208;49.406;10.788;2022-08-30T08:47:08;22.20;99.90
8342;DHT22;4208;49.406;10.788;2022-08-30T08:49:43;22.30;99.90
8342;DHT22;4208;49.406;10.788;2022-08-30T08:52:17;22.50;99.90
8342;DHT22;4208;49.406;10.788;2022-08-30T08:55:08;22.60;99.90
8342;DHT22;4208;49.406;10.788;2022-08-30T08:57:37;22.60;99.30
8342;DHT22;4208;49.406;10.788;2022-08-30T09:00:09;22.70;99.50
8342;DHT22;4208;49.406;10.788;2022-08-30T09:02:44;22.80;98.90
8342;DHT22;4208;49.406;10.788;2022-08-30T09:05:17;23.00;98.60
8342;DHT22;4208;49.406;10.788;2022-08-30T09:07:49;23.20;98.50
8342;DHT22;4208;49.406;10.788;2022-08-30T09:10:20;23.30;98.00
8342;DHT22;4208;49.406;10.788;2022-08-30T09:13:09;23.40;97.00
8342;DHT22;4208;49.406;10.788;2022-08-30T09:15:40;23.60;97.00
8342;DHT22;4208;49.406;10.788;2022-08-30T09:18:10;23.80;97.10
8342;DHT22;4208;49.406;10.788;2022-08-30T09:20:47;23.90;96.80
8342;DHT22;4208;49.406;10.788;2022-08-30T09:23:27;24.00;96.50
8342;DHT22;4208;49.406;10.788;2022-08-30T09:26:00;24.20;96.00
8342;DHT22;4208;49.406;10.788;2022-08-30T09:28:32;24.10;96.20
8342;DHT22;4208;49.406;10.788;2022-08-30T09:31:04;24.10;95.70
8342;DHT22;4208;49.406;10.788;2022-08-30T09:33:38;24.20;95.70
8342;DHT22;4208;49.406;10.788;2022-08-30T09:36:18;24.30;95.60
8342;DHT22;4208;49.406;10.788;2022-08-30T09:38:59;24.50;94.70
8342;DHT22;4208;49.406;10.788;2022-08-30T09:41:35;24.60;94.10
8342;DHT22;4208;49.406;10.788;2022-08-30T09:44:09;24.80;93.30
8342;DHT22;4208;49.406;10.788;2022-08-30T09:46:47;24.80;92.70
8342;DHT22;4208;49.406;10.788;2022-08-30T09:49:32;24.80;92.70
8342;DHT22;4208;49.406;10.788;2022-08-30T09:52:11;25.00;91.10
8342;DHT22;4208;49.406;10.788;2022-08-30T09:54:48;25.20;91.30
8342;DHT22;4208;49.406;10.788;2022-08-30T09:57:28;25.20;92.00
8342;DHT22;4208;49.406;10.788;2022-08-30T10:00:05;25.30;91.30
8342;DHT22;4208;49.406;10.788;2022-08-30T10:02:55;25.40;91.00
8342;DHT22;4208;49.406;10.788;2022-08-30T10:05:32;25.40;91.80
8342;DHT22;4208;49.406;10.788;2022-08-30T10:08:11;25.50;91.20
8342;DHT22;4208;49.406;10.788;2022-08-30T10:10:50;25.60;87.60
8342;DHT22;4208;49.406;10.788;2022-08-30T10:13:34;25.70;89.20
8342;DHT22;4208;49.406;10.788;2022-08-30T10:16:11;25.80;88.40
8342;DHT22;4208;49.406;10.788;2022-08-30T10:18:50;25.90;88.00
8342;DHT22;4208;49.406;10.788;2022-08-30T10:21:25;26.10;86.40
8342;DHT22;4208;49.406;10.788;2022-08-30T10:24:00;26.40;83.80
8342;DHT22;4208;49.406;10.788;2022-08-30T10:26:34;26.30;86.70
8342;DHT22;4208;49.406;10.788;2022-08-30T10:29:09;26.40;85.70
8342;DHT22;4208;49.406;10.788;2022-08-30T10:31:43;26.60;85.40
8342;DHT22;4208;49.406;10.788;2022-08-30T10:34:17;26.70;83.10
8342;DHT22;4208;49.406;10.788;2022-08-30T10:36:51;26.70;81.40
8342;DHT22;4208;49.406;10.788;2022-08-30T10:39:24;26.70;81.90
8342;DHT22;4208;49.406;10.788;2022-08-30T10:42:04;26.80;76.50
8342;DHT22;4208;49.406;10.788;2022-08-30T10:44:38;26.90;80.30
8342;DHT22;4208;49.406;10.788;2022-08-30T10:47:16;26.90;78.70
8342;DHT22;4208;49.406;10.788;2022-08-30T10:49:54;27.00;79.60
8342;DHT22;4208;49.406;10.788;2022-08-30T10:52:30;27.20;79.40
8342;DHT22;4208;49.406;10.788;2022-08-30T10:55:06;27.20;79.90
8342;DHT22;4208;49.406;10.788;2022-08-30T10:57:37;27.30;80.40
8342;DHT22;4208;49.406;10.788;2022-08-30T11:00:13;27.40;77.50
8342;DHT22;4208;49.406;10.788;2022-08-30T11:03:37;27.50;78.00
8342;DHT22;4208;49.406;10.788;2022-08-30T11:06:17;27.70;73.60
8342;DHT22;4208;49.406;10.788;2022-08-30T11:09:24;27.80;74.90
8342;DHT22;4208;49.406;10.788;2022-08-30T11:12:14;28.10;73.50
8342;DHT22;4208;49.406;10.788;2022-08-30T11:14:48;28.20;74.00
8342;DHT22;4208;49.406;10.788;2022-08-30T11:17:26;28.50;74.10
8342;DHT22;4208;49.406;10.788;2022-08-30T11:19:57;28.50;73.20
8342;DHT22;4208;49.406;10.788;2022-08-30T11:22:30;28.70;70.90
8342;DHT22;4208;49.406;10.788;2022-08-30T11:25:09;28.70;70.40
8342;DHT22;4208;49.406;10.788;2022-08-30T11:27:46;29.00;69.80
8342;DHT22;4208;49.406;10.788;2022-08-30T11:30:50;28.90;72.10
8342;DHT22;4208;49.406;10.788;2022-08-30T11:33:28;29.00;71.10
8342;DHT22;4208;49.406;10.788;2022-08-30T11:35:57;29.00;65.40
8342;DHT22;4208;49.406;10.788;2022-08-30T11:38:59;29.10;68.90
8342;DHT22;4208;49.406;10.788;2022-08-30T11:41:33;29.30;69.00
8342;DHT22;4208;49.406;10.788;2022-08-30T11:44:30;29.30;69.80
8342;DHT22;4208;49.406;10.788;2022-08-30T11:47:02;29.60;61.20
8342;DHT22;4208;49.406;10.788;2022-08-30T11:49:59;29.60;65.10
8342;DHT22;4208;49.406;10.788;2022-08-30T11:52:44;29.80;59.20
8342;DHT22;4208;49.406;10.788;2022-08-30T11:55:43;29.90;62.20
8342;DHT22;4208;49.406;10.788;2022-08-30T11:58:21;29.90;61.40
8342;DHT22;4208;49.406;10.788;2022-08-30T12:01:14;29.70;58.70
8342;DHT22;4208;49.406;10.788;2022-08-30T12:04:10;30.00;60.40
8342;DHT22;4208;49.406;10.788;2022-08-30T12:06:48;30.10;58.30
8342;DHT22;4208;49.406;10.788;2022-08-30T12:09:57;30.10;58.70
8342;DHT22;4208;49.406;10.788;2022-08-30T12:12:46;30.10;57.00
8342;DHT22;4208;49.406;10.788;2022-08-30T12:18:40;30.10;58.50
8342;DHT22;4208;49.406;10.788;2022-08-30T12:21:26;29.90;58.40
8342;DHT22;4208;49.406;10.788;2022-08-30T12:24:03;29.80;59.70
8342;DHT22;4208;49.406;10.788;2022-08-30T12:26:37;29.80;58.10
8342;DHT22;4208;49.406;10.788;2022-08-30T12:29:11;29.50;62.50
8342;DHT22;4208;49.406;10.788;2022-08-30T12:31:44;29.40;59.60
8342;DHT22;4208;49.406;10.788;2022-08-30T12:34:22;29.40;58.40
8342;DHT22;4208;49.406;10.788;2022-08-30T12:36:56;29.20;61.00
8342;DHT22;4208;49.406;10.788;2022-08-30T12:39:29;29.30;59.50
8342;DHT22;4208;49.406;10.788;2022-08-30T12:42:11;29.30;57.90
8342;DHT22;4208;49.406;10.788;2022-08-30T12:44:44;29.40;56.70
8342;DHT22;4208;49.406;10.788;2022-08-30T12:47:19;29.20;61.90
8342;DHT22;4208;49.406;10.788;2022-08-30T12:49:50;29.30;61.00
8342;DHT22;4208;49.406;10.788;2022-08-30T12:52:28;29.00;63.40
8342;DHT22;4208;49.406;10.788;2022-08-30T12:55:08;29.00;59.70
8342;DHT22;4208;49.406;10.788;2022-08-30T12:57:55;29.00;63.20
8342;DHT22;4208;49.406;10.788;2022-08-30T13:00:30;29.10;61.20
8342;DHT22;4208;49.406;10.788;2022-08-30T13:03:02;29.10;61.20
8342;DHT22;4208;49.406;10.788;2022-08-30T13:05:44;29.30;57.00
8342;DHT22;4208;49.406;10.788;2022-08-30T13:08:23;29.30;61.10
8342;DHT22;4208;49.406;10.788;2022-08-30T13:10:59;29.30;60.80
8342;DHT22;4208;49.406;10.788;2022-08-30T13:13:37;29.20;57.60
8342;DHT22;4208;49.406;10.788;2022-08-30T13:16:10;29.20;57.90
8342;DHT22;4208;49.406;10.788;2022-08-30T13:18:39;29.10;58.40
8342;DHT22;4208;49.406;10.788;2022-08-30T13:21:19;29.00;62.30
8342;DHT22;4208;49.406;10.788;2022-08-30T13:23:53;29.00;61.20
8342;DHT22;4208;49.406;10.788;2022-08-30T13:26:22;29.10;61.40
8342;DHT22;4208;49.406;10.788;2022-08-30T13:28:55;29.00;62.00
8342;DHT22;4208;49.406;10.788;2022-08-30T13:31:25;29.00;60.10
8342;DHT22;4208;49.406;10.788;2022-08-30T13:33:56;28.80;60.60
8342;DHT22;4208;49.406;10.788;2022-08-30T13:36:28;28.90;59.30
8342;DHT22;4208;49.406;10.788;2022-08-30T13:38:59;28.90;62.50
8342;DHT22;4208;49.406;10.788;2022-08-30T13:41:28;28.80;64.30
8342;DHT22;4208;49.406;10.788;2022-08-30T13:44:01;28.70;62.10
8342;DHT22;4208;49.406;10.788;2022-08-30T13:46:42;28.70;61.80
8342;DHT22;4208;49.406;10.788;2022-08-30T13:49:21;28.90;60.00
8342;DHT22;4208;49.406;10.788;2022-08-30T13:52:13;28.90;58.00
8342;DHT22;4208;49.406;10.788;2022-08-30T13:54:51;28.90;61.60
8342;DHT22;4208;49.406;10.788;2022-08-30T13:57:23;28.90;61.90
8342;DHT22;4208;49.406;10.788;2022-08-30T14:00:14;28.90;59.70
8342;DHT22;4208;49.406;10.788;2022-08-30T14:02:46;28.90;63.50
8342;DHT22;4208;49.406;10.788;2022-08-30T14:05:22;29.10;58.20
8342;DHT22;4208;49.406;10.788;2022-08-30T14:08:14;29.20;56.70
8342;DHT22;4208;49.406;10.788;2022-08-30T14:11:05;29.20;58.80
8342;DHT22;4208;49.406;10.788;2022-08-30T14:13:34;29.20;59.30
8342;DHT22;4208;49.406;10.788;2022-08-30T14:16:06;29.20;60.00
8342;DHT22;4208;49.406;10.788;2022-08-30T14:18:55;29.20;61.00
8342;DHT22;4208;49.406;10.788;2022-08-30T14:21:24;29.10;60.50
8342;DHT22;4208;49.406;10.788;2022-08-30T14:23:54;28.90;62.20
8342;DHT22;4208;49.406;10.788;2022-08-30T14:26:27;28.90;59.90
8342;DHT22;4208;49.406;10.788;2022-08-30T14:29:00;28.70;61.40
8342;DHT22;4208;49.406;10.788;2022-08-30T14:31:29;28.50;62.60
8342;DHT22;4208;49.406;10.788;2022-08-30T14:34:00;28.40;63.00
8342;DHT22;4208;49.406;10.788;2022-08-30T14:36:31;28.20;63.70
8342;DHT22;4208;49.406;10.788;2022-08-30T14:38:59;28.20;64.40
8342;DHT22;4208;49.406;10.788;2022-08-30T14:41:34;28.10;64.30
8342;DHT22;4208;49.406;10.788;2022-08-30T14:44:10;28.00;63.60
8342;DHT22;4208;49.406;10.788;2022-08-30T14:46:39;27.90;63.50
8342;DHT22;4208;49.406;10.788;2022-08-30T14:49:09;27.80;65.30
8342;DHT22;4208;49.406;10.788;2022-08-30T14:51:39;27.70;64.00
8342;DHT22;4208;49.406;10.788;2022-08-30T14:54:08;27.60;64.80
8342;DHT22;4208;49.406;10.788;2022-08-30T14:56:40;27.50;65.60
8342;DHT22;4208;49.406;10.788;2022-08-30T14:59:09;27.40;65.50
8342;DHT22;4208;49.406;10.788;2022-08-30T15:01:40;27.30;64.30
8342;DHT22;4208;49.406;10.788;2022-08-30T15:04:10;27.30;62.50
8342;DHT22;4208;49.406;10.788;2022-08-30T15:06:41;27.20;65.00
8342;DHT22;4208;49.406;10.788;2022-08-30T15:09:12;27.20;63.80
8342;DHT22;4208;49.406;10.788;2022-08-30T15:11:43;27.20;62.30
8342;DHT22;4208;49.406;10.788;2022-08-30T15:14:13;27.10;64.90
8342;DHT22;4208;49.406;10.788;2022-08-30T15:16:43;27.00;65.80
8342;DHT22;4208;49.406;10.788;2022-08-30T15:19:12;27.00;65.00
8342;DHT22;4208;49.406;10.788;2022-08-30T15:21:42;27.00;64.00
8342;DHT22;4208;49.406;10.788;2022-08-30T15:24:15;27.10;63.60
8342;DHT22;4208;49.406;10.788;2022-08-30T15:26:46;27.10;64.70
8342;DHT22;4208;49.406;10.788;2022-08-30T15:29:17;27.10;64.20
8342;DHT22;4208;49.406;10.788;2022-08-30T15:31:47;27.10;63.90
8342;DHT22;4208;49.406;10.788;2022-08-30T15:34:18;27.20;65.40
8342;DHT22;4208;49.406;10.788;2022-08-30T15:36:52;27.20;65.60
8342;DHT22;4208;49.406;10.788;2022-08-30T15:39:21;27.20;63.90
8342;DHT22;4208;49.406;10.788;2022-08-30T15:41:52;27.20;64.30
8342;DHT22;4208;49.406;10.788;2022-08-30T15:44:28;27.20;63.10
8342;DHT22;4208;49.406;10.788;2022-08-30T15:46:57;27.10;64.70
8342;DHT22;4208;49.406;10.788;2022-08-30T15:49:26;27.10;63.40
8342;DHT22;4208;49.406;10.788;2022-08-30T15:51:59;27.10;64.30
8342;DHT22;4208;49.406;10.788;2022-08-30T15:54:29;27.00;64.10
8342;DHT22;4208;49.406;10.788;2022-08-30T15:56:59;27.00;63.70
8342;DHT22;4208;49.406;10.788;2022-08-30T15:59:32;27.00;63.70
8342;DHT22;4208;49.406;10.788;2022-08-30T16:02:00;26.90;64.20
8342;DHT22;4208;49.406;10.788;2022-08-30T16:04:29;26.90;65.40
8342;DHT22;4208;49.406;10.788;2022-08-30T16:06:58;26.90;63.00
8342;DHT22;4208;49.406;10.788;2022-08-30T16:09:27;27.00;63.60
8342;DHT22;4208;49.406;10.788;2022-08-30T16:12:00;26.90;64.80
8342;DHT22;4208;49.406;10.788;2022-08-30T16:14:32;26.90;65.20
8342;DHT22;4208;49.406;10.788;2022-08-30T16:17:01;26.90;64.60
8342;DHT22;4208;49.406;10.788;2022-08-30T16:19:31;26.80;65.60
8342;DHT22;4208;49.406;10.788;2022-08-30T16:22:00;26.80;66.10
8342;DHT22;4208;49.406;10.788;2022-08-30T16:24:29;26.80;65.20